Thunder radar more information blitzortung!


Radar de pluja more information rain snow radar


Visita la nostra xarxa de llocs de meteo:

Template documentation
and downloads

And another site



No particular awareness of the weather is required.    There are no Weather-warnings

Pagina Historial Weather Underground text

Diari Resum Juny 19, 2017 Unitats:  Mètric    Imperial   Tant
« Previous Dia
SegĂźent Dia »
Diari Setmana Mensual Anual Personalitzada
  Maxima: Minima: Media:
Temperatura: -17.8 °C -6.9 °C -2.8 °C
Punt de rosada: -17.8 °C -10.4 °C -8.7 °C
Humitat: Humidity % 35 % 53 %
Wind Speed: 0 km/h 0 km/h 13.2 km/h
RĂ fegues de vent: 0 km/h - -
Vent:- - SSE
Pression baro: 0 hPa 34361.1 hPa -
Precipitacions: 0 mm    
Historical Graphs
 
 
Dades de taula per Juny 19, 2017
Temps Temperatura Punt de rosada Pression baro Vent Wind Speed RĂ fegues de vent Humitat Rainfall Rate (Hourly)
-17.8 °C -17.8 °C 0 hPa Calm     Humidity % 0 mm
00:00 -6.6 °C -8.8 °C 34395 hPa Calm   5.1 km/h 78 % 0 mm
00:01 -4.8 °C -8.1 °C 34395 hPa NNE 6 km/h 6 km/h 69 % 0 mm
00:10 -6.6 °C -8.8 °C 34395 hPa NNE 2.6 km/h 2.6 km/h 78 % 0 mm
00:20 -6.7 °C -8.8 °C 34395 hPa Calm   5.1 km/h 78 % 0 mm
00:30 -6.7 °C -9.1 °C 34395 hPa NNE 2.6 km/h 5.1 km/h 77 % 0 mm
00:40 -6.8 °C -9 °C 34395 hPa Calm   5.1 km/h 78 % 0 mm
00:50 -6.8 °C -9 °C 34395 hPa NNE 2.6 km/h 5.1 km/h 78 % 0 mm
01:00 -6.8 °C -9 °C 34395 hPa NE 2.6 km/h 2.6 km/h 78 % 0 mm
01:10 -6.8 °C -9 °C 34395 hPa Calm   2.6 km/h 78 % 0 mm
01:20 -6.8 °C -9 °C 34395 hPa Calm   2.6 km/h 78 % 0 mm
01:30 -6.9 °C -9.1 °C 34395 hPa Calm   5.1 km/h 78 % 0 mm
01:40 -6.9 °C -9.1 °C 34395 hPa NNE 2.6 km/h 2.6 km/h 78 % 0 mm
01:50 -6.9 °C -9.1 °C 34395 hPa Calm     78 % 0 mm
02:00 -6.8 °C -9 °C 34395 hPa Calm   5.1 km/h 78 % 0 mm
02:10 -6.9 °C -9.1 °C 34395 hPa Calm   2.6 km/h 78 % 0 mm
02:20 -6.8 °C -9 °C 34428.8 hPa SW 2.6 km/h 5.1 km/h 78 % 0 mm
02:30 -6.7 °C -8.9 °C 34428.8 hPa Calm   5.1 km/h 78 % 0 mm
02:40 -6.3 °C -8.6 °C 34428.8 hPa SSW 2.6 km/h 5.1 km/h 78 % 0 mm
02:50 -6.3 °C -8.6 °C 34462.7 hPa Calm   5.1 km/h 77 % 0 mm
03:00 -6.1 °C -8.5 °C 34462.7 hPa Calm   2.6 km/h 76 % 0 mm
03:10 -5.7 °C -8.3 °C 34462.7 hPa East 2.6 km/h 5.1 km/h 75 % 0 mm
03:20 -5.6 °C -8.4 °C 34462.7 hPa ENE 2.6 km/h 7.7 km/h 73 % 0 mm
03:30 -5.5 °C -8.6 °C 34462.7 hPa ENE 5.1 km/h 7.7 km/h 71 % 0 mm
03:40 -5.2 °C -8.4 °C 34462.7 hPa ENE 5.1 km/h 7.7 km/h 70 % 0 mm
03:50 -5.1 °C -8.4 °C 34462.7 hPa East 2.6 km/h 7.7 km/h 69 % 0 mm
04:00 -4.8 °C -8.4 °C 34462.7 hPa ENE 7.7 km/h 7.7 km/h 67 % 0 mm
04:10 -4.8 °C -8.7 °C 34462.7 hPa East 7.7 km/h 7.7 km/h 65 % 0 mm
04:20 -4.6 °C -8.6 °C 34496.6 hPa East 5.1 km/h 10.3 km/h 64 % 0 mm
04:30 -4.3 °C -8.6 °C 34496.6 hPa ENE 7.7 km/h 10.3 km/h 62 % 0 mm
04:40 -4.2 °C -8.8 °C 34462.7 hPa ENE 5.1 km/h 15.6 km/h 60 % 0 mm
04:50 -4.1 °C -9 °C 34462.7 hPa East 12.9 km/h 12.9 km/h 58 % 0 mm
05:00 -3.9 °C -8.9 °C 34462.7 hPa East 7.7 km/h 10.3 km/h 57 % 0 mm
05:10 -3.7 °C -9.1 °C 34462.7 hPa ENE 2.6 km/h 12.9 km/h 55 % 0 mm
05:20 -3.4 °C -8.8 °C 34462.7 hPa ENE 5.1 km/h 12.9 km/h 55 % 0 mm
05:30 -2.9 °C -8.4 °C 34462.7 hPa East 7.7 km/h 10.3 km/h 55 % 0 mm
05:40 -3.2 °C -8.8 °C 34428.8 hPa ESE 7.7 km/h 15.6 km/h 54 % 0 mm
05:50 -3 °C -8.6 °C 34462.7 hPa East 5.1 km/h 15.6 km/h 54 % 0 mm
06:00 -2.7 °C -8.6 °C 34462.7 hPa East 5.1 km/h 15.6 km/h 52 % 0 mm
06:10 -2.8 °C -8.7 °C 34462.7 hPa East 7.7 km/h 12.9 km/h 52 % 0 mm
06:20 -2.6 °C -8.7 °C 34462.7 hPa ESE 7.7 km/h 18.2 km/h 51 % 0 mm
06:30 -2.3 °C -8.3 °C 34462.7 hPa East 5.1 km/h 15.6 km/h 52 % 0 mm
06:40 -2.3 °C -8.5 °C 34462.7 hPa East 12.9 km/h 18.2 km/h 51 % 0 mm
06:50 -2.2 °C -8.4 °C 34462.7 hPa ESE 7.7 km/h 15.6 km/h 51 % 0 mm
07:00 -2 °C -8.2 °C 34462.7 hPa ESE 15.6 km/h 20.8 km/h 51 % 0 mm
07:10 -1.8 °C -8 °C 34462.7 hPa East 12.9 km/h 12.9 km/h 51 % 0 mm
07:20 -1.7 °C -8.1 °C 34462.7 hPa East 15.6 km/h 15.6 km/h 50 % 0 mm
07:30 -1.3 °C -8.4 °C 34462.7 hPa East 7.7 km/h 25.9 km/h 46 % 0 mm
12:40 -1.5 °C -8.4 °C 34462.7 hPa ESE 20.9 km/h 20.9 km/h 47 % 0 mm
12:41 -1.5 °C -8.4 °C 34462.7 hPa East 23.8 km/h 23.8 km/h 47 % 0 mm
12:46 -1.4 °C -8.2 °C 34462.7 hPa NE 32.8 km/h 32.8 km/h 48 % 0 mm
12:51 -1.4 °C -8 °C 34462.7 hPa NE 26.4 km/h 26.4 km/h 49 % 0 mm
12:56 -1.5 °C -8.1 °C 34462.7 hPa ESE 26.9 km/h 26.9 km/h 49 % 0 mm
13:01 -1.6 °C -8.2 °C 34462.7 hPa NE 17.9 km/h 17.9 km/h 49 % 0 mm
13:06 -1.5 °C -8.1 °C 34462.7 hPa East 31.9 km/h 31.9 km/h 49 % 0 mm
13:11 -1.3 °C -7.9 °C 34462.7 hPa East 33.6 km/h 33.6 km/h 49 % 0 mm
13:16 -1.5 °C -8.1 °C 34462.7 hPa SSE 35.7 km/h 35.7 km/h 49 % 0 mm
13:21 -1.3 °C -7.9 °C 34462.7 hPa ESE 20.3 km/h 20.3 km/h 49 % 0 mm
13:22 -1.3 °C -7.9 °C 34462.7 hPa ESE 24.3 km/h 24.3 km/h 49 % 0 mm
13:27 -1.6 °C -8.2 °C 34462.7 hPa ENE 25.1 km/h 25.1 km/h 49 % 0 mm
13:32 -1.6 °C -8.2 °C 34428.8 hPa ESE 22 km/h 22 km/h 49 % 0 mm
13:37 -1.5 °C -7.9 °C 34428.8 hPa ESE 27.7 km/h 27.7 km/h 50 % 0 mm
13:42 -1.3 °C -7.7 °C 34428.8 hPa ESE 23.8 km/h 23.8 km/h 50 % 0 mm
13:47 -1.4 °C -7.9 °C 34462.7 hPa East 19.2 km/h 19.2 km/h 49 % 0 mm
13:52 -1.4 °C -8.2 °C 34462.7 hPa SE 20.9 km/h 20.9 km/h 48 % 0 mm
13:57 -1.4 °C -8.2 °C 34462.7 hPa East 27.7 km/h 27.7 km/h 48 % 0 mm
14:02 -1.2 °C -8 °C 34428.8 hPa NE 15.3 km/h 15.3 km/h 48 % 0 mm
14:07 -1.2 °C -7.9 °C 34428.8 hPa East 20.9 km/h 20.9 km/h 48 % 0 mm
14:12 -1.1 °C -8 °C 34428.8 hPa SSE 20.9 km/h 20.9 km/h 47 % 0 mm
14:17 -1.1 °C -8.2 °C 34462.7 hPa ESE 26.9 km/h 26.9 km/h 46 % 0 mm
14:22 -1.2 °C -8.1 °C 34462.7 hPa ESE 23.8 km/h 23.8 km/h 47 % 0 mm
14:27 -1.3 °C -8.2 °C 34462.7 hPa ESE 29.8 km/h 29.8 km/h 47 % 0 mm
14:32 -1.4 °C -8.4 °C 34462.7 hPa ESE 20.9 km/h 20.9 km/h 47 % 0 mm
14:37 -1.2 °C -7.9 °C 34462.7 hPa ENE 26.9 km/h 26.9 km/h 48 % 0 mm
14:42 -1.2 °C -8.2 °C 34462.7 hPa ENE 29.8 km/h 29.8 km/h 47 % 0 mm
14:47 -1.2 °C -8 °C 34462.7 hPa ESE 30.6 km/h 30.6 km/h 48 % 0 mm
14:52 -1.4 °C -8.2 °C 34462.7 hPa SSE 23.8 km/h 23.8 km/h 48 % 0 mm
14:57 -1.1 °C -7.9 °C 34462.7 hPa ESE 20.9 km/h 20.9 km/h 48 % 0 mm
15:02 -1.2 °C -7.7 °C 34462.7 hPa ESE 17.9 km/h 17.9 km/h 49 % 0 mm
15:07 -1.2 °C -7.8 °C 34462.7 hPa ESE 29.8 km/h 29.8 km/h 49 % 0 mm
15:12 -1.2 °C -7.8 °C 34462.7 hPa ESE 29.8 km/h 29.8 km/h 49 % 0 mm
15:17 -1.1 °C -7.7 °C 34462.7 hPa SSE 20.9 km/h 20.9 km/h 49 % 0 mm
15:22 -1.2 °C -8 °C 34462.7 hPa ESE 20.9 km/h 20.9 km/h 48 % 0 mm
15:27 -1.1 °C -7.9 °C 34462.7 hPa ESE 27.2 km/h 27.2 km/h 48 % 0 mm
15:32 -1 °C -7.9 °C 34462.7 hPa SE 20.9 km/h 20.9 km/h 47 % 0 mm
15:37 -1.1 °C -7.8 °C 34462.7 hPa SSE 20.9 km/h 20.9 km/h 48 % 0 mm
15:42 -0.6 °C -7.8 °C 34462.7 hPa East 15 km/h 15 km/h 46 % 0 mm
15:47 -0.6 °C -7.9 °C 34462.7 hPa SSE 16.1 km/h 16.1 km/h 45 % 0 mm
15:52 -0.9 °C -7.7 °C 34462.7 hPa ESE 26.9 km/h 26.9 km/h 48 % 0 mm
15:57 -1.1 °C -8.1 °C 34462.7 hPa SE 29.8 km/h 29.8 km/h 47 % 0 mm
16:02 -1.1 °C -8.1 °C 34462.7 hPa East 24.3 km/h 24.3 km/h 47 % 0 mm
16:07 -1.2 °C -7.8 °C 34462.7 hPa ENE 23.8 km/h 23.8 km/h 49 % 0 mm
16:12 -1.1 °C -7.8 °C 34462.7 hPa ESE 23.8 km/h 23.8 km/h 48 % 0 mm
16:17 -1.1 °C -7.9 °C 34462.7 hPa ESE 26.9 km/h 26.9 km/h 48 % 0 mm
16:22 -1.2 °C -7.8 °C 34462.7 hPa ESE 26.9 km/h 26.9 km/h 49 % 0 mm
16:27 -1.2 °C -7.8 °C 34462.7 hPa ENE 23.8 km/h 23.8 km/h 49 % 0 mm
16:32 -1.2 °C -7.8 °C 34428.8 hPa SE 29.8 km/h 29.8 km/h 49 % 0 mm
16:37 -1.2 °C -7.7 °C 34428.8 hPa SE 20.9 km/h 20.9 km/h 49 % 0 mm
16:42 -1.1 °C -7.7 °C 34428.8 hPa ENE 16.6 km/h 16.6 km/h 49 % 0 mm
16:47 -1.2 °C -7.6 °C 34462.7 hPa NE 26.9 km/h 26.9 km/h 50 % 0 mm
16:52 -1.2 °C -7.6 °C 34462.7 hPa ESE 32.8 km/h 32.8 km/h 50 % 0 mm
16:57 -0.9 °C -7.7 °C 34462.7 hPa SE 17.9 km/h 17.9 km/h 48 % 0 mm
17:02 -0.7 °C -7.7 °C 34428.8 hPa SW 26.4 km/h 26.4 km/h 47 % 0 mm
17:07 -0.4 °C -7.6 °C 34428.8 hPa SE 17.9 km/h 17.9 km/h 46 % 0 mm
17:12 -0.6 °C -7.6 °C 34428.8 hPa NE 17.9 km/h 17.9 km/h 47 % 0 mm
17:17 -0.2 °C -7.4 °C 34428.8 hPa South 11.9 km/h 11.9 km/h 46 % 0 mm
17:22 -0.4 °C -7.6 °C 34428.8 hPa ESE 19.2 km/h 19.2 km/h 46 % 0 mm
17:27 -0.3 °C -7.6 °C 34428.8 hPa SE 15 km/h 15 km/h 46 % 0 mm
17:32 -0.5 °C -7.9 °C 34395 hPa South 15 km/h 15 km/h 45 % 0 mm
17:37 -0.6 °C -7.8 °C 34395 hPa ESE 15 km/h 15 km/h 46 % 0 mm
17:42 -0.7 °C -7.7 °C 34395 hPa SSE 15 km/h 15 km/h 47 % 0 mm
17:47 -0.6 °C -7.8 °C 34395 hPa SSW 15 km/h 15 km/h 46 % 0 mm
17:52 -0.1 °C -7.6 °C 34395 hPa South 15 km/h 15 km/h 45 % 0 mm
17:57 -0.3 °C -8.2 °C 34395 hPa SSE 11.9 km/h 11.9 km/h 43 % 0 mm
18:02 -0.6 °C -7.8 °C 34395 hPa ESE 6 km/h 6 km/h 46 % 0 mm
18:07 -0.7 °C -7.7 °C 34395 hPa SSW 15 km/h 15 km/h 47 % 0 mm
18:12 -0.5 °C -7.7 °C 34395 hPa SSE 26.9 km/h 26.9 km/h 46 % 0 mm
18:17 -0.4 °C -7.7 °C 34361.1 hPa SSW 9 km/h 9 km/h 46 % 0 mm
18:22 -0.3 °C -7.9 °C 34361.1 hPa ESE 15.3 km/h 15.3 km/h 44 % 0 mm
18:27 -0.2 °C -8.5 °C 34361.1 hPa SSW 15 km/h 15 km/h 41 % 0 mm
18:32 0.1 °C -8.2 °C 34361.1 hPa SW 20.9 km/h 20.9 km/h 41 % 0 mm
18:37 -0.3 °C -8.4 °C 34361.1 hPa SE 20.9 km/h 20.9 km/h 42 % 0 mm
18:42 -0.2 °C -8.5 °C 34361.1 hPa West 6 km/h 6 km/h 41 % 0 mm
18:47 -0.2 °C -8.8 °C 34395 hPa WSW 15 km/h 15 km/h 39 % 0 mm
18:52 -0.1 °C -8.6 °C 34395 hPa WSW 11.9 km/h 11.9 km/h 40 % 0 mm
18:57 -0.3 °C -9.2 °C 34395 hPa WSW 15 km/h 15 km/h 38 % 0 mm
19:02 -0.2 °C -9.1 °C 34395 hPa SW 15.6 km/h 15.6 km/h 38 % 0 mm
19:07 -0.4 °C -9.5 °C 34395 hPa South 20.9 km/h 20.9 km/h 37 % 0 mm
19:12 -0.6 °C -9.7 °C 34395 hPa SW 15 km/h 15 km/h 37 % 0 mm
19:17 -0.6 °C -9.9 °C 34395 hPa SW 6 km/h 6 km/h 36 % 0 mm
19:22 -0.5 °C -9.6 °C 34395 hPa SW 11.9 km/h 11.9 km/h 37 % 0 mm
19:27 -0.6 °C -9.9 °C 34395 hPa SSE 15.6 km/h 15.6 km/h 36 % 0 mm
19:32 -0.8 °C -10.2 °C 34361.1 hPa SW 15 km/h 15 km/h 36 % 0 mm
19:37 -0.8 °C -10.2 °C 34361.1 hPa SSW 11.9 km/h 11.9 km/h 36 % 0 mm
19:42 -0.8 °C -10.1 °C 34361.1 hPa WSW 11.9 km/h 11.9 km/h 36 % 0 mm
19:47 -0.9 °C -10.4 °C 34395 hPa SW 20.9 km/h 20.9 km/h 35 % 0 mm
19:52 -1.1 °C -10.3 °C 34395 hPa SW 6 km/h 6 km/h 36 % 0 mm
19:57 -1.1 °C -10.3 °C 34395 hPa South 9.8 km/h 9.8 km/h 36 % 0 mm
20:02 -1.3 °C -10.3 °C 34395 hPa South 17.9 km/h 17.9 km/h 37 % 0 mm
20:07 -1.3 °C -10.3 °C 34395 hPa WSW 11.9 km/h 11.9 km/h 37 % 0 mm
20:12 -1.4 °C -10.4 °C 34395 hPa South 11.9 km/h 11.9 km/h 37 % 0 mm
20:17 -1.6 °C -10.4 °C 34395 hPa SW 17.9 km/h 17.9 km/h 38 % 0 mm
20:22 -1.6 °C -10.4 °C 34395 hPa SSW 9 km/h 9 km/h 38 % 0 mm
20:27 -1.7 °C -10.2 °C 34395 hPa South 19.2 km/h 19.2 km/h 39 % 0 mm
20:32 -1.8 °C -10.1 °C 34395 hPa SW 14 km/h 14 km/h 40 % 0 mm
20:37 -1.9 °C -10.2 °C 34395 hPa SSW 11.9 km/h 11.9 km/h 40 % 0 mm
20:42 -2 °C -10.1 °C 34395 hPa South 12.7 km/h 12.7 km/h 41 % 0 mm
20:47 -2.1 °C -9.9 °C 34395 hPa SW 15 km/h 15 km/h 42 % 0 mm
20:52 -2.2 °C -10.1 °C 34395 hPa South 9 km/h 9 km/h 42 % 0 mm
20:57 -2.3 °C -10.2 °C 34395 hPa South 20.9 km/h 20.9 km/h 42 % 0 mm
21:02 -2.4 °C -10 °C 34395 hPa WSW 9 km/h 9 km/h 43 % 0 mm
21:07 -2.5 °C -10.1 °C 34395 hPa SW 9 km/h 9 km/h 43 % 0 mm
21:12 -2.6 °C -10 °C 34395 hPa SW 11.9 km/h 11.9 km/h 44 % 0 mm
21:17 -2.7 °C -10.1 °C 34428.8 hPa SW 9 km/h 9 km/h 44 % 0 mm
21:22 -2.8 °C -9.9 °C 34428.8 hPa SSE 9 km/h 9 km/h 45 % 0 mm
21:27 -2.9 °C -9.9 °C 34428.8 hPa SW 6 km/h 6 km/h 46 % 0 mm
21:32 -3 °C -9.8 °C 34428.8 hPa SSW 8 km/h 8 km/h 47 % 0 mm
21:37 -3.1 °C -9.8 °C 34428.8 hPa West 11.9 km/h 11.9 km/h 47 % 0 mm
21:42 -3.2 °C -9.8 °C 34428.8 hPa WSW 11.9 km/h 11.9 km/h 48 % 0 mm
21:47 -3.2 °C -9.8 °C 34462.7 hPa South 9 km/h 9 km/h 48 % 0 mm
21:52 -3.4 °C -9.8 °C 34462.7 hPa SW 9 km/h 9 km/h 49 % 0 mm
21:57 -3.5 °C -9.9 °C 34462.7 hPa SSW 10.3 km/h 10.3 km/h 49 % 0 mm
22:02 -3.6 °C -9.8 °C 34462.7 hPa SSW 11.9 km/h 11.9 km/h 50 % 0 mm
22:07 -3.7 °C -9.7 °C 34462.7 hPa SSW 15 km/h 15 km/h 51 % 0 mm
22:12 -3.8 °C -9.6 °C 34462.7 hPa SW 15 km/h 15 km/h 52 % 0 mm
22:17 -3.8 °C -9.6 °C 34428.8 hPa SW 11.9 km/h 11.9 km/h 53 % 0 mm
22:22 -3.9 °C -9.6 °C 34428.8 hPa SSW 11.9 km/h 11.9 km/h 53 % 0 mm
22:27 -3.9 °C -9.3 °C 34428.8 hPa SW 9 km/h 9 km/h 55 % 0 mm
22:32 -4 °C -9.3 °C 34462.7 hPa WSW 9 km/h 9 km/h 55 % 0 mm
22:37 -4.1 °C -9.3 °C 34462.7 hPa SW 11.9 km/h 11.9 km/h 56 % 0 mm
22:40 -5.7 °C -7.6 °C 34462.7 hPa Calm   2.6 km/h 81 % 0 mm
22:42 -4.1 °C -9.3 °C 34462.7 hPa SW 9 km/h 9 km/h 56 % 0 mm
22:47 -4.2 °C -9.2 °C 34496.6 hPa SW 6 km/h 6.8 km/h 57 % 0 mm
22:50 -5.7 °C -7.6 °C 34462.7 hPa Calm   2.6 km/h 81 % 0 mm
22:52 -4.3 °C -9.2 °C 34496.6 hPa WSW 9 km/h 9 km/h 58 % 0 mm
22:53 -4.3 °C -9.2 °C 34496.6 hPa WSW 9 km/h 9 km/h 58 % 0 mm
22:58 -4.3 °C -9.2 °C 34496.6 hPa WSW 6.3 km/h 6.3 km/h 58 % 0 mm
23:00 -5.7 °C -7.5 °C 34462.7 hPa Calm     82 % 0 mm
23:03 -4.3 °C -9.1 °C 34462.7 hPa SW 6 km/h 6 km/h 59 % 0 mm
23:08 -4.4 °C -9 °C 34462.7 hPa SW 6.3 km/h 6.3 km/h 60 % 0 mm
23:10 -5.8 °C -7.7 °C 34428.8 hPa Calm   2.6 km/h 81 % 0 mm
23:13 -4.4 °C -8.9 °C 34462.7 hPa SW 6 km/h 6 km/h 61 % 0 mm
23:18 -4.5 °C -8.8 °C 34462.7 hPa SSW 6.8 km/h 6.8 km/h 62 % 0 mm
23:20 -5.9 °C -7.8 °C 34428.8 hPa Calm   2.6 km/h 81 % 0 mm
23:23 -4.5 °C -8.5 °C 34462.7 hPa WSW 9 km/h 9 km/h 64 % 0 mm
23:28 -4.6 °C -8.6 °C 34462.7 hPa SW 6.8 km/h 6.8 km/h 64 % 0 mm
23:30 -6 °C -7.9 °C 34428.8 hPa SW 2.6 km/h 5.1 km/h 81 % 0 mm
23:33 -4.6 °C -8.5 °C 34462.7 hPa SW 9 km/h 9 km/h 65 % 0 mm
23:38 -4.6 °C -8.2 °C 34462.7 hPa SW 6.8 km/h 6.8 km/h 67 % 0 mm
23:40 -6.1 °C -8.1 °C 34395 hPa SW 5.1 km/h 5.1 km/h 80 % 0 mm
23:43 -4.7 °C -8.3 °C 34462.7 hPa SW 6 km/h 6 km/h 67 % 0 mm
23:44 -4.7 °C -8.3 °C 34462.7 hPa WSW 6.3 km/h 6.3 km/h 67 % 0 mm
23:49 -4.7 °C -8.2 °C 34462.7 hPa SW 6 km/h 6 km/h 68 % 0 mm
23:50 -6.2 °C -8.1 °C 34395 hPa SW 2.6 km/h 5.1 km/h 81 % 0 mm
23:54 -4.7 °C -8.1 °C 34462.7 hPa SW 6 km/h 6 km/h 69 % 0 mm
23:59 -4.8 °C -8 °C 34462.7 hPa SW 3.1 km/h 3.7 km/h 70 % 0 mm
Meteo Sesrovires
Elogis d' Weather Underground - 1.5 mb

Guio original per  Jim McMurry - jmcmurry@mwt.net Adaptat per a la plantilla per  Wim van der Kuil - Leuven-Template.eu

Trobareu la nostra informacio del temps tambe a:

Weather Underground

AWEKAS